createdAt,value
2019-04-28T00:01:03.970Z,13.53
2019-04-28T00:03:31.971Z,10.83
2019-04-28T00:06:01.155Z,11.50
2019-04-28T00:08:29.109Z,12.00
2019-04-28T00:10:56.903Z,13.70
2019-04-28T00:13:24.597Z,12.17
2019-04-28T00:15:53.101Z,11.43
2019-04-28T00:18:21.972Z,14.40
2019-04-28T00:21:07.725Z,13.93
2019-04-28T00:23:57.646Z,12.00
2019-04-28T00:26:38.472Z,10.30
2019-04-28T00:29:06.146Z,8.97
2019-04-28T00:31:33.837Z,11.90
2019-04-28T00:34:01.531Z,11.63
2019-04-28T00:36:31.139Z,12.27
2019-04-28T00:38:58.687Z,9.23
2019-04-28T00:41:26.391Z,10.30
2019-04-28T00:43:54.046Z,12.13
2019-04-28T00:46:27.120Z,11.50
2019-04-28T00:48:54.788Z,10.83
2019-04-28T00:51:22.475Z,11.17
2019-04-28T00:53:50.890Z,9.73
2019-04-28T00:56:18.725Z,12.13
2019-04-28T00:58:46.425Z,10.60
2019-04-28T01:01:18.276Z,10.37
2019-04-28T01:03:46.023Z,14.40
2019-04-28T01:06:14.118Z,13.53
2019-04-28T01:08:41.996Z,11.47
2019-04-28T01:11:09.667Z,13.70
2019-04-28T01:13:37.487Z,11.07
2019-04-28T01:16:14.393Z,14.27
2019-04-28T01:18:47.527Z,16.17
2019-04-28T01:21:15.212Z,12.83
2019-04-28T01:23:42.856Z,9.73
2019-04-28T01:26:10.601Z,10.57
2019-04-28T01:28:39.809Z,12.77
2019-04-28T01:31:25.959Z,12.70
2019-04-28T01:34:20.376Z,11.13
2019-04-28T01:36:49.561Z,17.93
2019-04-28T01:39:17.774Z,12.00
2019-04-28T01:41:45.470Z,12.20
2019-04-28T01:44:13.156Z,10.90
2019-04-28T01:46:40.865Z,13.80
2019-04-28T01:49:09.615Z,16.57
2019-04-28T01:51:37.490Z,15.40
2019-04-28T01:54:05.158Z,16.43
2019-04-28T01:56:32.836Z,17.87
2019-04-28T01:59:00.533Z,15.57
2019-04-28T02:01:30.063Z,12.10
2019-04-28T02:03:57.808Z,13.67
2019-04-28T02:06:25.472Z,14.03
2019-04-28T02:08:53.168Z,12.70
2019-04-28T02:11:20.848Z,15.57
2019-04-28T02:13:49.707Z,15.03
2019-04-28T02:16:19.345Z,14.63
2019-04-28T02:18:46.912Z,15.83
2019-04-28T02:21:34.040Z,15.57
2019-04-28T02:24:20.067Z,14.40
2019-04-28T02:26:47.837Z,16.13
2019-04-28T02:29:15.560Z,17.50
2019-04-28T02:31:43.196Z,16.97
2019-04-28T02:34:11.244Z,19.43
2019-04-28T02:36:40.761Z,18.73
2019-04-28T02:39:10.671Z,17.03
2019-04-28T02:41:40.951Z,18.07
2019-04-28T02:44:10.269Z,18.23
2019-04-28T02:46:37.454Z,16.53
2019-04-28T02:49:06.968Z,18.43
2019-04-28T02:51:40.875Z,17.43
2019-04-28T02:54:10.400Z,20.13
2019-04-28T02:56:40.875Z,21.83
2019-04-28T02:59:07.705Z,21.27
2019-04-28T03:01:35.410Z,19.10
2019-04-28T03:04:03.101Z,18.63
2019-04-28T03:06:30.889Z,18.93
2019-04-28T03:09:00.304Z,22.20
2019-04-28T03:11:28.064Z,19.37
2019-04-28T03:13:55.759Z,20.70
2019-04-28T03:16:23.428Z,22.40
2019-04-28T03:18:51.538Z,24.77
2019-04-28T03:21:21.412Z,19.27
2019-04-28T03:23:51.344Z,17.57
2019-04-28T03:26:26.037Z,21.27
2019-04-28T03:29:05.919Z,20.73
2019-04-28T03:32:13.712Z,17.87
2019-04-28T03:34:13.900Z,22.20
2019-04-28T03:36:41.594Z,19.83
2019-04-28T03:39:10.979Z,29.20
2019-04-28T03:41:40.518Z,22.87
2019-04-28T03:44:08.252Z,24.67
2019-04-28T03:46:41.441Z,19.60
2019-04-28T03:49:10.945Z,29.37
2019-04-28T03:51:40.758Z,22.17
2019-04-28T03:54:10.275Z,24.50
2019-04-28T03:56:37.657Z,16.87
2019-04-28T03:59:05.349Z,23.63
2019-04-28T04:01:33.072Z,29.87
2019-04-28T04:04:03.352Z,21.50
2019-04-28T04:06:31.072Z,22.23
2019-04-28T04:09:00.341Z,21.47
2019-04-28T04:11:42.516Z,18.97
2019-04-28T04:14:31.014Z,21.20
2019-04-28T04:17:21.472Z,20.37
2019-04-28T04:19:50.310Z,24.20
2019-04-28T04:22:18.176Z,21.03
2019-04-28T04:24:45.834Z,28.47
2019-04-28T04:27:13.489Z,20.57
2019-04-28T04:29:43.644Z,16.20
2019-04-28T04:32:20.503Z,21.27
2019-04-28T04:34:40.848Z,19.27
2019-04-28T04:37:12.180Z,17.20
2019-04-28T04:39:40.515Z,22.17
2019-04-28T04:42:10.250Z,22.37
2019-04-28T04:44:40.594Z,17.80
2019-04-28T04:47:06.547Z,18.77
2019-04-28T04:49:34.259Z,17.30
2019-04-28T04:52:01.944Z,17.00
2019-04-28T04:54:32.056Z,13.03
2019-04-28T04:57:00.025Z,19.87
2019-04-28T04:59:30.152Z,17.87
2019-04-28T05:02:33.298Z,17.43
2019-04-28T05:05:35.671Z,17.93
2019-04-28T05:08:03.434Z,16.33
2019-04-28T05:10:31.111Z,16.53
2019-04-28T05:13:00.236Z,14.93
2019-04-28T05:15:28.075Z,16.70
2019-04-28T05:17:55.719Z,16.97
2019-04-28T05:20:23.390Z,15.50
2019-04-28T05:22:57.900Z,12.03
2019-04-28T05:25:32.600Z,17.97
2019-04-28T05:28:02.879Z,17.10
2019-04-28T05:30:29.944Z,17.27
2019-04-28T05:32:57.575Z,13.47
2019-04-28T05:35:25.303Z,15.07
2019-04-28T05:37:53.001Z,16.23
2019-04-28T05:40:20.703Z,17.57
2019-04-28T05:43:01.016Z,16.17
2019-04-28T05:45:32.219Z,15.30
2019-04-28T05:47:59.967Z,17.87
2019-04-28T05:50:42.204Z,18.57
2019-04-28T05:53:24.953Z,12.77
2019-04-28T05:56:15.235Z,15.60
2019-04-28T05:58:50.461Z,23.37
2019-04-28T06:01:37.666Z,15.37
2019-04-28T06:04:05.299Z,13.57
2019-04-28T06:06:36.931Z,13.40
2019-04-28T06:09:10.704Z,14.13
2019-04-28T06:11:39.814Z,13.03
2019-04-28T06:14:10.612Z,21.40
2019-04-28T06:16:40.425Z,17.73
2019-04-28T06:19:07.759Z,24.27
2019-04-28T06:21:35.561Z,15.07
2019-04-28T06:24:03.309Z,15.80
2019-04-28T06:26:30.998Z,15.97
2019-04-28T06:28:58.697Z,11.93
2019-04-28T06:31:26.363Z,15.53
2019-04-28T06:33:54.107Z,15.37
2019-04-28T06:36:21.738Z,14.87
2019-04-28T06:38:49.445Z,14.43
2019-04-28T06:41:17.123Z,17.20
2019-04-28T06:43:44.779Z,14.83
2019-04-28T06:46:12.463Z,18.20
2019-04-28T06:48:40.118Z,13.90
2019-04-28T06:51:07.785Z,11.37
2019-04-28T06:53:35.493Z,20.53
2019-04-28T06:56:03.244Z,14.03
2019-04-28T06:58:30.927Z,14.37
2019-04-28T07:00:58.666Z,15.77
2019-04-28T07:03:26.458Z,12.33
2019-04-28T07:05:54.100Z,11.73
2019-04-28T07:08:21.742Z,17.07
2019-04-28T07:10:49.422Z,18.53
2019-04-28T07:13:17.083Z,16.77
2019-04-28T07:15:44.784Z,18.03
2019-04-28T07:18:12.415Z,17.10
2019-04-28T07:20:49.521Z,17.03
2019-04-28T07:23:17.244Z,12.83
2019-04-28T07:25:44.929Z,13.80
2019-04-28T07:28:12.591Z,17.73
2019-04-28T07:30:41.208Z,15.10
2019-04-28T07:33:08.980Z,17.57
2019-04-28T07:35:36.708Z,12.93
2019-04-28T07:38:04.430Z,16.40
2019-04-28T07:40:32.176Z,14.47
2019-04-28T07:42:59.816Z,17.23
2019-04-28T07:45:27.481Z,14.40
2019-04-28T07:47:55.180Z,15.47
2019-04-28T07:50:22.829Z,14.27
2019-04-28T07:52:56.257Z,10.40
2019-04-28T07:55:23.920Z,16.23
2019-04-28T07:57:51.592Z,13.87
2019-04-28T08:00:25.836Z,13.50
2019-04-28T08:02:53.524Z,20.77
2019-04-28T08:05:21.169Z,13.47
2019-04-28T08:07:48.851Z,12.67
2019-04-28T08:10:16.503Z,11.40
2019-04-28T08:12:44.167Z,14.50
2019-04-28T08:15:12.320Z,17.33
2019-04-28T08:17:40.004Z,10.07
2019-04-28T08:20:07.692Z,15.03
2019-04-28T08:22:35.485Z,15.50
2019-04-28T08:25:03.297Z,13.73
2019-04-28T08:27:30.956Z,12.27
2019-04-28T08:29:59.032Z,14.07
2019-04-28T08:32:33.379Z,12.33
2019-04-28T08:35:01.079Z,12.60
2019-04-28T08:37:28.720Z,11.20
2019-04-28T08:39:56.412Z,13.70
2019-04-28T08:42:24.064Z,15.93
2019-04-28T08:44:51.786Z,10.07
2019-04-28T08:47:19.461Z,14.83
2019-04-28T08:49:47.191Z,15.33
2019-04-28T08:52:14.842Z,13.97
2019-04-28T08:54:42.526Z,14.20
2019-04-28T08:57:10.241Z,15.87
2019-04-28T08:59:37.849Z,16.00
2019-04-28T09:02:05.622Z,14.77
2019-04-28T09:04:33.343Z,15.23
2019-04-28T09:07:01.046Z,14.27
2019-04-28T09:09:28.692Z,15.17
2019-04-28T09:11:56.380Z,13.80
2019-04-28T09:14:24.060Z,15.33
2019-04-28T09:16:51.738Z,13.23
2019-04-28T09:19:19.481Z,13.17
2019-04-28T09:21:47.186Z,14.03
2019-04-28T09:24:14.886Z,20.93
2019-04-28T09:26:42.543Z,15.43
2019-04-28T09:29:10.199Z,11.27
2019-04-28T09:31:37.936Z,9.10
2019-04-28T09:34:05.604Z,12.03
2019-04-28T09:36:33.289Z,9.97
2019-04-28T09:39:01.186Z,10.97
2019-04-28T09:41:29.075Z,9.30
2019-04-28T09:44:01.804Z,9.63
2019-04-28T09:46:32.023Z,10.80
2019-04-28T09:48:59.674Z,11.83
2019-04-28T09:51:27.328Z,8.77
2019-04-28T09:53:55.026Z,11.47
2019-04-28T09:56:22.716Z,10.50
2019-04-28T09:58:50.708Z,8.83
2019-04-28T10:01:18.454Z,10.47
2019-04-28T10:03:46.189Z,9.07
2019-04-28T10:06:13.825Z,9.70
2019-04-28T10:08:41.510Z,11.30
2019-04-28T10:11:09.147Z,10.30
2019-04-28T10:13:36.833Z,10.83
2019-04-28T10:16:04.505Z,12.10
2019-04-28T10:18:32.188Z,10.40
2019-04-28T10:20:59.844Z,11.07
2019-04-28T10:23:27.522Z,8.97
2019-04-28T10:25:55.180Z,12.33
2019-04-28T10:28:22.947Z,11.17
2019-04-28T10:30:50.590Z,9.50
2019-04-28T10:33:18.293Z,9.80
2019-04-28T10:35:45.956Z,9.07
2019-04-28T10:38:13.630Z,8.13
2019-04-28T10:40:47.773Z,7.23
2019-04-28T10:43:15.435Z,8.97
2019-04-28T10:45:47.575Z,6.30
2019-04-28T10:48:15.237Z,7.47
2019-04-28T10:50:42.899Z,6.73
2019-04-28T10:53:10.561Z,9.00
2019-04-28T10:55:38.370Z,9.53
2019-04-28T10:58:06.131Z,6.57
2019-04-28T11:00:35.235Z,6.13
2019-04-28T11:03:02.966Z,8.20
2019-04-28T11:05:36.476Z,8.37
2019-04-28T11:08:06.406Z,10.20
2019-04-28T11:10:34.417Z,7.13
2019-04-28T11:13:07.399Z,8.47
2019-04-28T11:15:36.147Z,5.43
2019-04-28T11:18:05.915Z,5.27
2019-04-28T11:20:33.590Z,9.03
2019-04-28T11:23:01.378Z,5.70
2019-04-28T11:25:29.230Z,8.20
2019-04-28T11:27:56.905Z,9.90
2019-04-28T11:30:25.116Z,7.37
2019-04-28T11:33:10.500Z,6.97
2019-04-28T11:35:38.345Z,8.77
2019-04-28T11:38:07.743Z,5.07
2019-04-28T11:40:35.405Z,7.57
2019-04-28T11:43:07.675Z,4.73
2019-04-28T11:45:35.341Z,5.97
2019-04-28T11:48:03.065Z,7.23
2019-04-28T11:50:30.727Z,5.33
2019-04-28T11:52:58.472Z,8.40
2019-04-28T11:55:26.103Z,7.47
2019-04-28T11:57:53.799Z,5.93
2019-04-28T12:00:26.092Z,8.17
2019-04-28T12:02:53.885Z,11.33
2019-04-28T12:05:34.036Z,9.03
2019-04-28T12:07:53.056Z,6.43
2019-04-28T12:10:25.099Z,10.20
2019-04-28T12:13:15.084Z,5.77
2019-04-28T12:16:00.989Z,9.10
2019-04-28T12:18:50.110Z,8.03
2019-04-28T12:21:17.761Z,9.67
2019-04-28T12:23:45.434Z,10.23
2019-04-28T12:26:13.089Z,9.50
2019-04-28T12:28:40.757Z,7.63
2019-04-28T12:31:08.383Z,9.03
2019-04-28T12:33:36.087Z,11.17
2019-04-28T12:36:06.959Z,13.40
2019-04-28T12:38:34.772Z,10.90
2019-04-28T12:41:02.462Z,8.30
2019-04-28T12:43:30.105Z,7.33
2019-04-28T12:45:57.795Z,7.33
2019-04-28T12:48:25.486Z,6.17
2019-04-28T12:50:53.189Z,8.33
2019-04-28T12:53:21.360Z,5.83
2019-04-28T12:55:49.037Z,9.30
2019-04-28T12:58:16.706Z,6.73
2019-04-28T13:01:09.834Z,6.60
2019-04-28T13:04:12.232Z,7.20
2019-04-28T13:06:39.902Z,7.33
2019-04-28T13:09:07.695Z,5.97
2019-04-28T13:11:35.403Z,6.83
2019-04-28T13:14:03.150Z,5.97
2019-04-28T13:16:30.861Z,6.90
2019-04-28T13:18:58.509Z,8.63
2019-04-28T13:21:26.154Z,5.37
2019-04-28T13:23:53.828Z,6.07
2019-04-28T13:26:21.447Z,6.17
2019-04-28T13:28:49.176Z,7.17
2019-04-28T13:31:16.839Z,8.13
2019-04-28T13:33:55.814Z,7.83
2019-04-28T13:36:15.261Z,6.87
2019-04-28T13:38:43.152Z,5.93
2019-04-28T13:41:10.791Z,9.17
2019-04-28T13:43:38.489Z,7.93
2019-04-28T13:46:06.143Z,10.07
2019-04-28T13:48:33.806Z,6.73
2019-04-28T13:51:01.509Z,7.77
2019-04-28T13:53:29.120Z,8.57
2019-04-28T13:56:03.228Z,9.03
2019-04-28T13:58:49.679Z,9.27
2019-04-28T14:01:43.073Z,8.97
2019-04-28T14:04:23.299Z,9.43
2019-04-28T14:06:53.614Z,9.10
2019-04-28T14:09:21.274Z,9.47
2019-04-28T14:11:49.119Z,8.30
2019-04-28T14:14:16.731Z,7.37
2019-04-28T14:16:44.425Z,8.20
2019-04-28T14:19:12.114Z,9.00
2019-04-28T14:21:39.792Z,7.20
2019-04-28T14:24:10.550Z,6.03
2019-04-28T14:26:40.061Z,7.37
2019-04-28T14:29:07.713Z,8.10
2019-04-28T14:31:35.479Z,7.50
2019-04-28T14:34:03.239Z,5.57
2019-04-28T14:36:41.404Z,6.80
2019-04-28T14:39:00.447Z,4.60
2019-04-28T14:41:28.188Z,6.70
2019-04-28T14:43:55.930Z,6.83
2019-04-28T14:46:23.661Z,8.47
2019-04-28T14:48:51.377Z,4.60
2019-04-28T14:51:19.112Z,6.37
2019-04-28T14:53:46.905Z,4.40
2019-04-28T14:56:14.570Z,3.50
2019-04-28T14:58:42.264Z,6.97
2019-04-28T15:01:17.765Z,6.60
2019-04-28T15:03:48.434Z,4.63
2019-04-28T15:06:27.899Z,5.50
2019-04-28T15:09:13.407Z,7.20
2019-04-28T15:11:47.511Z,4.67
2019-04-28T15:14:15.264Z,5.70
2019-04-28T15:16:43.016Z,5.87
2019-04-28T15:19:10.653Z,4.53
2019-04-28T15:21:38.500Z,7.27
2019-04-28T15:24:06.109Z,4.67
2019-04-28T15:26:33.781Z,7.30
2019-04-28T15:29:01.497Z,7.97
2019-04-28T15:31:29.522Z,7.27
2019-04-28T15:33:57.202Z,6.80
2019-04-28T15:36:24.875Z,7.43
2019-04-28T15:38:52.579Z,4.53
2019-04-28T15:41:21.672Z,6.33
2019-04-28T15:43:49.750Z,8.03
2019-04-28T15:46:17.409Z,13.30
2019-04-28T15:48:45.234Z,7.13
2019-04-28T15:51:12.909Z,7.60
2019-04-28T15:53:40.559Z,5.30
2019-04-28T15:56:17.570Z,6.47
2019-04-28T15:58:45.244Z,8.03
2019-04-28T16:01:12.983Z,7.13
2019-04-28T16:03:40.787Z,4.83
2019-04-28T16:06:08.436Z,7.37
2019-04-28T16:08:36.124Z,6.30
2019-04-28T16:11:04.195Z,8.00
2019-04-28T16:13:31.890Z,6.50
2019-04-28T16:15:59.571Z,8.27
2019-04-28T16:18:27.204Z,6.23
2019-04-28T16:20:54.897Z,6.73
2019-04-28T16:23:22.558Z,6.40
2019-04-28T16:25:50.222Z,6.43
2019-04-28T16:28:17.842Z,7.47
2019-04-28T16:30:45.559Z,5.93
2019-04-28T16:33:13.226Z,5.17
2019-04-28T16:35:40.974Z,7.27
2019-04-28T16:38:08.683Z,5.43
2019-04-28T16:40:40.316Z,5.70
2019-04-28T16:43:15.888Z,6.53
2019-04-28T16:45:43.510Z,4.97
2019-04-28T16:48:11.193Z,5.17
2019-04-28T16:50:38.852Z,6.73
2019-04-28T16:53:06.554Z,6.20
2019-04-28T16:55:53.751Z,5.93
2019-04-28T16:58:40.899Z,7.93
2019-04-28T17:01:28.075Z,7.80
2019-04-28T17:03:55.748Z,7.13
2019-04-28T17:06:23.495Z,5.90
2019-04-28T17:08:51.202Z,7.63
2019-04-28T17:11:18.879Z,4.83
2019-04-28T17:13:46.691Z,5.10
2019-04-28T17:16:14.353Z,7.07
2019-04-28T17:18:42.018Z,4.63
2019-04-28T17:21:09.688Z,5.30
2019-04-28T17:23:37.312Z,5.97
2019-04-28T17:26:05.079Z,5.23
2019-04-28T17:28:32.751Z,6.67
2019-04-28T17:31:00.451Z,5.10
2019-04-28T17:33:28.079Z,5.00
2019-04-28T17:35:55.782Z,5.57
2019-04-28T17:38:23.437Z,7.33
2019-04-28T17:40:51.225Z,5.80
2019-04-28T17:43:18.899Z,6.30
2019-04-28T17:45:46.572Z,7.33
2019-04-28T17:48:19.403Z,5.33
2019-04-28T17:50:47.157Z,5.30
2019-04-28T17:53:14.851Z,5.33
2019-04-28T17:55:42.511Z,7.30
2019-04-28T17:58:10.206Z,4.70
2019-04-28T18:01:15.035Z,6.00
2019-04-28T18:04:00.904Z,6.07
2019-04-28T18:06:28.884Z,4.37
2019-04-28T18:08:56.538Z,4.40
2019-04-28T18:11:24.318Z,5.80
2019-04-28T18:13:51.977Z,3.67
2019-04-28T18:16:39.092Z,4.40
2019-04-28T18:19:09.147Z,9.10
2019-04-28T18:21:36.784Z,13.13
2019-04-28T18:24:04.635Z,13.60
2019-04-28T18:26:32.347Z,23.70
2019-04-28T18:28:59.962Z,23.13
2019-04-28T18:31:38.135Z,21.40
2019-04-28T18:34:27.985Z,15.03
2019-04-28T18:37:09.207Z,17.07
2019-04-28T18:39:55.036Z,17.30
2019-04-28T18:42:32.408Z,25.70
2019-04-28T18:45:00.098Z,24.83
2019-04-28T18:47:27.740Z,23.10
2019-04-28T18:49:57.567Z,19.30
2019-04-28T18:52:25.227Z,16.90
2019-04-28T18:54:52.944Z,13.53
2019-04-28T18:57:20.567Z,15.67
2019-04-28T18:59:48.284Z,10.03
2019-04-28T19:02:21.845Z,10.30
2019-04-28T19:04:49.552Z,6.70
2019-04-28T19:07:21.564Z,7.97
2019-04-28T19:09:57.590Z,5.97
2019-04-28T19:12:30.140Z,7.73
2019-04-28T19:15:17.320Z,7.50
2019-04-28T19:17:51.232Z,7.80
2019-04-28T19:20:18.898Z,11.37
2019-04-28T19:22:47.124Z,9.17
2019-04-28T19:25:14.810Z,8.47
2019-04-28T19:27:42.464Z,7.93
2019-04-28T19:30:11.241Z,8.13
2019-04-28T19:32:38.908Z,10.33
2019-04-28T19:35:06.916Z,7.77
2019-04-28T19:37:34.587Z,6.47
2019-04-28T19:40:02.364Z,10.37
2019-04-28T19:42:30.052Z,8.20
2019-04-28T19:44:57.743Z,8.93
2019-04-28T19:47:25.473Z,8.30
2019-04-28T19:49:53.157Z,10.10
2019-04-28T19:52:20.806Z,10.80
2019-04-28T19:55:23.031Z,9.93
2019-04-28T19:58:00.693Z,11.13
2019-04-28T20:00:36.417Z,11.67
2019-04-28T20:03:04.065Z,14.80
2019-04-28T20:05:31.773Z,12.73
2019-04-28T20:07:59.427Z,12.23
2019-04-28T20:10:27.115Z,13.53
2019-04-28T20:12:54.807Z,13.67
2019-04-28T20:15:22.469Z,12.60
2019-04-28T20:17:50.140Z,16.00
2019-04-28T20:20:17.820Z,9.70
2019-04-28T20:22:45.500Z,11.70
2019-04-28T20:25:13.507Z,13.20
2019-04-28T20:27:41.156Z,11.80
2019-04-28T20:30:09.166Z,8.27
2019-04-28T20:32:44.645Z,10.37
2019-04-28T20:35:35.004Z,10.77
2019-04-28T20:38:08.996Z,10.87
2019-04-28T20:40:44.766Z,10.73
2019-04-28T20:43:14.549Z,13.33
2019-04-28T20:45:45.550Z,12.27
2019-04-28T20:48:13.201Z,11.10
2019-04-28T20:50:40.910Z,10.93
2019-04-28T20:53:08.570Z,9.93
2019-04-28T20:55:36.281Z,13.30
2019-04-28T20:58:03.932Z,11.63
2019-04-28T21:00:31.748Z,9.90
2019-04-28T21:02:59.409Z,10.93
2019-04-28T21:05:27.088Z,13.63
2019-04-28T21:07:54.819Z,13.23
2019-04-28T21:10:22.503Z,12.03
2019-04-28T21:12:50.161Z,10.67
2019-04-28T21:15:17.954Z,14.13
2019-04-28T21:17:45.630Z,12.10
2019-04-28T21:20:13.322Z,11.10
2019-04-28T21:22:40.980Z,9.73
2019-04-28T21:25:10.417Z,12.73
2019-04-28T21:27:38.130Z,8.03
2019-04-28T21:30:06.197Z,16.00
2019-04-28T21:32:33.865Z,13.63
2019-04-28T21:35:01.556Z,9.13
2019-04-28T21:37:29.241Z,13.40
2019-04-28T21:39:56.900Z,11.30
2019-04-28T21:42:27.155Z,9.37
2019-04-28T21:45:14.292Z,10.47
2019-04-28T21:47:41.942Z,10.50
2019-04-28T21:50:09.775Z,10.33
2019-04-28T21:52:37.424Z,9.97
2019-04-28T21:55:05.350Z,11.40
2019-04-28T21:57:33.040Z,12.80
2019-04-28T22:00:00.726Z,12.00
2019-04-28T22:02:28.437Z,11.57
2019-04-28T22:04:56.170Z,8.70
2019-04-28T22:07:23.815Z,12.43
2019-04-28T22:09:51.600Z,11.57
2019-04-28T22:12:19.304Z,11.00
2019-04-28T22:14:46.960Z,13.50
2019-04-28T22:17:14.662Z,9.53
2019-04-28T22:19:42.342Z,14.63
2019-04-28T22:22:10.031Z,11.47
2019-04-28T22:24:46.033Z,10.37
2019-04-28T22:27:17.173Z,10.63
2019-04-28T22:29:44.827Z,10.10
2019-04-28T22:32:12.472Z,9.43
2019-04-28T22:34:40.160Z,11.37
2019-04-28T22:37:07.813Z,10.13
2019-04-28T22:39:35.567Z,10.53
2019-04-28T22:42:03.264Z,10.13
2019-04-28T22:44:30.951Z,9.87
2019-04-28T22:46:58.656Z,11.43
2019-04-28T22:49:26.425Z,13.40
2019-04-28T22:51:54.082Z,12.50
2019-04-28T22:54:28.710Z,13.67
2019-04-28T22:57:17.587Z,11.90
2019-04-28T22:59:45.530Z,11.47
2019-04-28T23:02:15.319Z,10.97
2019-04-28T23:05:08.352Z,14.37
2019-04-28T23:07:35.985Z,16.43
2019-04-28T23:10:05.423Z,11.87
2019-04-28T23:12:33.072Z,11.93
2019-04-28T23:15:00.752Z,11.77
2019-04-28T23:17:28.427Z,10.17
2019-04-28T23:19:56.100Z,10.93
2019-04-28T23:22:47.395Z,13.60
2019-04-28T23:25:15.459Z,10.20
2019-04-28T23:27:43.092Z,9.97
2019-04-28T23:30:10.984Z,8.87
2019-04-28T23:32:38.683Z,12.53
2019-04-28T23:35:06.687Z,9.47
2019-04-28T23:37:34.356Z,13.17
2019-04-28T23:40:02.043Z,10.23
2019-04-28T23:42:41.005Z,12.70
2019-04-28T23:45:12.097Z,12.47
2019-04-28T23:47:38.481Z,11.77
2019-04-28T23:50:07.959Z,11.00
2019-04-28T23:52:43.773Z,10.13
2019-04-28T23:55:11.799Z,13.57
2019-04-28T23:57:39.447Z,11.10
